createdAt,value
2023-05-05T00:00:32.295Z,378.00
2023-05-05T00:01:32.331Z,378.00
2023-05-05T00:02:32.426Z,375.00
2023-05-05T00:03:32.395Z,375.00
2023-05-05T00:04:32.440Z,376.00
2023-05-05T00:05:32.407Z,376.00
2023-05-05T00:06:32.420Z,376.00
2023-05-05T00:07:32.443Z,379.00
2023-05-05T00:08:32.463Z,377.00
2023-05-05T00:09:32.475Z,375.00
2023-05-05T00:10:32.515Z,375.00
2023-05-05T00:11:32.513Z,374.00
2023-05-05T00:12:32.584Z,375.00
2023-05-05T00:13:32.582Z,374.00
2023-05-05T00:14:32.584Z,374.00
2023-05-05T00:15:32.603Z,374.00
2023-05-05T00:16:32.650Z,373.00
2023-05-05T00:17:32.677Z,372.00
2023-05-05T00:18:32.697Z,373.00
2023-05-05T00:19:32.718Z,373.00
2023-05-05T00:20:32.738Z,374.00
2023-05-05T00:21:32.758Z,374.00
2023-05-05T00:22:32.784Z,375.00
2023-05-05T00:23:32.802Z,375.00
2023-05-05T00:24:32.869Z,375.00
2023-05-05T00:25:32.853Z,374.00
2023-05-05T00:26:32.881Z,376.00
2023-05-05T00:27:32.916Z,374.00
2023-05-05T00:28:32.940Z,373.00
2023-05-05T00:29:32.971Z,371.00
2023-05-05T00:30:32.967Z,372.00
2023-05-05T00:31:33.062Z,374.00
2023-05-05T00:32:33.046Z,375.00
2023-05-05T00:33:33.084Z,377.00
2023-05-05T00:34:33.059Z,379.00
2023-05-05T00:35:33.111Z,381.00
2023-05-05T00:36:33.189Z,381.00
2023-05-05T00:37:33.146Z,381.00
2023-05-05T00:38:33.111Z,380.00
2023-05-05T00:39:33.098Z,381.00
2023-05-05T00:40:33.177Z,379.00
2023-05-05T00:41:33.098Z,378.00
2023-05-05T00:42:33.025Z,379.00
2023-05-05T00:43:32.994Z,377.00
2023-05-05T00:44:32.986Z,376.00
2023-05-05T00:45:32.982Z,378.00
2023-05-05T00:46:33.013Z,379.00
2023-05-05T00:47:32.970Z,377.00
2023-05-05T00:48:32.908Z,377.00
2023-05-05T00:49:32.946Z,379.00
2023-05-05T00:50:32.867Z,379.00
2023-05-05T00:51:32.972Z,379.00
2023-05-05T00:52:32.940Z,379.00
2023-05-05T00:53:32.978Z,379.00
2023-05-05T00:54:33.016Z,377.00
2023-05-05T00:55:33.052Z,375.00
2023-05-05T00:56:33.080Z,374.00
2023-05-05T00:57:33.146Z,376.00
2023-05-05T00:58:33.152Z,379.00
2023-05-05T00:59:33.170Z,379.00
2023-05-05T01:00:33.246Z,378.00
2023-05-05T01:01:33.251Z,378.00
2023-05-05T01:02:33.335Z,375.00
2023-05-05T01:03:33.466Z,376.00
2023-05-05T01:04:33.331Z,377.00
2023-05-05T01:05:33.380Z,378.00
2023-05-05T01:06:33.404Z,374.00
2023-05-05T01:07:33.440Z,373.00
2023-05-05T01:08:33.489Z,373.00
2023-05-05T01:09:33.473Z,371.00
2023-05-05T01:10:33.515Z,368.00
2023-05-05T01:11:33.550Z,368.00
2023-05-05T01:12:33.604Z,368.00
2023-05-05T01:13:33.612Z,369.00
2023-05-05T01:14:33.654Z,372.00
2023-05-05T01:15:33.658Z,374.00
2023-05-05T01:16:33.746Z,375.00
2023-05-05T01:17:33.776Z,375.00
2023-05-05T01:18:33.768Z,376.00
2023-05-05T01:19:33.791Z,375.00
2023-05-05T01:20:33.809Z,375.00
2023-05-05T01:21:33.847Z,374.00
2023-05-05T01:22:33.907Z,371.00
2023-05-05T01:23:33.905Z,370.00
2023-05-05T01:24:33.944Z,365.00
2023-05-05T01:25:33.977Z,367.00
2023-05-05T01:26:34.013Z,365.00
2023-05-05T01:27:34.081Z,366.00
2023-05-05T01:28:34.082Z,368.00
2023-05-05T01:29:34.096Z,366.00
2023-05-05T01:30:34.146Z,368.00
2023-05-05T01:31:34.163Z,369.00
2023-05-05T01:32:34.261Z,370.00
2023-05-05T01:33:34.217Z,370.00
2023-05-05T01:34:34.263Z,371.00
2023-05-05T01:35:34.265Z,370.00
2023-05-05T01:36:34.317Z,372.00
2023-05-05T01:37:34.338Z,373.00
2023-05-05T01:38:34.369Z,374.00
2023-05-05T01:39:34.409Z,374.00
2023-05-05T01:40:34.447Z,373.00
2023-05-05T01:41:34.453Z,371.00
2023-05-05T01:42:34.442Z,371.00
2023-05-05T01:43:34.391Z,373.00
2023-05-05T01:44:34.359Z,374.00
2023-05-05T01:45:34.387Z,377.00
2023-05-05T01:46:34.316Z,375.00
2023-05-05T01:47:34.322Z,374.00
2023-05-05T01:48:34.254Z,373.00
2023-05-05T01:49:34.203Z,374.00
2023-05-05T01:50:34.175Z,373.00
2023-05-05T01:51:34.167Z,372.00
2023-05-05T01:52:34.119Z,373.00
2023-05-05T01:53:34.079Z,370.00
2023-05-05T01:54:34.051Z,368.00
2023-05-05T01:55:34.019Z,368.00
2023-05-05T01:56:33.991Z,364.00
2023-05-05T01:57:33.992Z,365.00
2023-05-05T01:58:33.973Z,366.00
2023-05-05T01:59:33.935Z,366.00
2023-05-05T02:00:33.893Z,366.00
2023-05-05T02:01:33.928Z,367.00
2023-05-05T02:02:33.967Z,370.00
2023-05-05T02:03:34.045Z,371.00
2023-05-05T02:04:34.004Z,371.00
2023-05-05T02:05:34.037Z,371.00
2023-05-05T02:06:34.053Z,371.00
2023-05-05T02:07:34.104Z,370.00
2023-05-05T02:08:34.134Z,369.00
2023-05-05T02:09:34.175Z,367.00
2023-05-05T02:10:34.186Z,367.00
2023-05-05T02:11:34.214Z,370.00
2023-05-05T02:12:34.297Z,369.00
2023-05-05T02:13:34.328Z,369.00
2023-05-05T02:14:34.322Z,369.00
2023-05-05T02:15:34.375Z,368.00
2023-05-05T02:16:34.385Z,368.00
2023-05-05T02:17:34.488Z,368.00
2023-05-05T02:18:34.449Z,368.00
2023-05-05T02:19:34.485Z,370.00
2023-05-05T02:20:34.524Z,370.00
2023-05-05T02:21:34.561Z,371.00
2023-05-05T02:22:34.614Z,373.00
2023-05-05T02:23:34.663Z,371.00
2023-05-05T02:24:34.704Z,370.00
2023-05-05T02:25:34.719Z,367.00
2023-05-05T02:26:34.764Z,367.00
2023-05-05T02:27:34.796Z,365.00
2023-05-05T02:28:34.835Z,365.00
2023-05-05T02:29:34.879Z,366.00
2023-05-05T02:30:34.903Z,367.00
2023-05-05T02:31:34.958Z,367.00
2023-05-05T02:32:35.016Z,369.00
2023-05-05T02:33:35.008Z,369.00
2023-05-05T02:34:35.038Z,371.00
2023-05-05T02:35:35.076Z,372.00
2023-05-05T02:36:35.126Z,371.00
2023-05-05T02:37:35.167Z,370.00
2023-05-05T02:38:35.206Z,370.00
2023-05-05T02:39:35.260Z,369.00
2023-05-05T02:40:35.272Z,370.00
2023-05-05T02:41:35.357Z,370.00
2023-05-05T02:42:35.364Z,369.00
2023-05-05T02:43:35.380Z,369.00
2023-05-05T02:44:35.426Z,370.00
2023-05-05T02:45:35.455Z,367.00
2023-05-05T02:46:35.516Z,366.00
2023-05-05T02:47:35.600Z,365.00
2023-05-05T02:48:35.576Z,365.00
2023-05-05T02:49:35.608Z,363.00
2023-05-05T02:50:35.657Z,363.00
2023-05-05T02:51:35.676Z,363.00
2023-05-05T02:52:35.728Z,362.00
2023-05-05T02:53:35.748Z,365.00
2023-05-05T02:54:35.801Z,365.00
2023-05-05T02:55:35.845Z,365.00
2023-05-05T02:56:35.869Z,366.00
2023-05-05T02:57:35.909Z,366.00
2023-05-05T02:58:35.944Z,362.00
2023-05-05T02:59:35.915Z,361.00
2023-05-05T03:00:35.894Z,361.00
2023-05-05T03:01:35.937Z,364.00
2023-05-05T03:02:35.925Z,368.00
2023-05-05T03:03:35.929Z,367.00
2023-05-05T03:04:35.818Z,369.00
2023-05-05T03:05:35.826Z,370.00
2023-05-05T03:06:35.797Z,367.00
2023-05-05T03:07:35.781Z,366.00
2023-05-05T03:08:35.745Z,369.00
2023-05-05T03:09:35.727Z,368.00
2023-05-05T03:10:35.715Z,366.00
2023-05-05T03:11:35.698Z,364.00
2023-05-05T03:12:35.681Z,366.00
2023-05-05T03:13:35.652Z,368.00
2023-05-05T03:14:35.621Z,370.00
2023-05-05T03:15:35.605Z,372.00
2023-05-05T03:16:35.672Z,371.00
2023-05-05T03:17:35.723Z,370.00
2023-05-05T03:18:35.750Z,370.00
2023-05-05T03:19:35.768Z,371.00
2023-05-05T03:20:35.809Z,372.00
2023-05-05T03:21:35.836Z,371.00
2023-05-05T03:22:35.872Z,371.00
2023-05-05T03:23:35.910Z,371.00
2023-05-05T03:24:36.048Z,370.00
2023-05-05T03:25:35.986Z,368.00
2023-05-05T03:26:36.046Z,369.00
2023-05-05T03:27:36.085Z,369.00
2023-05-05T03:28:36.127Z,370.00
2023-05-05T03:29:36.160Z,366.00
2023-05-05T03:30:36.213Z,365.00
2023-05-05T03:31:36.278Z,370.00
2023-05-05T03:32:36.353Z,367.00
2023-05-05T03:33:36.337Z,364.00
2023-05-05T03:34:36.400Z,363.00
2023-05-05T03:35:36.440Z,363.00
2023-05-05T03:36:36.487Z,364.00
2023-05-05T03:37:36.516Z,366.00
2023-05-05T03:38:36.560Z,366.00
2023-05-05T03:39:36.591Z,368.00
2023-05-05T03:40:43.406Z,366.00
2023-05-05T03:41:37.608Z,367.00
2023-05-05T03:42:36.592Z,364.00
2023-05-05T03:43:36.553Z,362.00
2023-05-05T03:44:36.540Z,361.00
2023-05-05T03:45:36.533Z,360.00
2023-05-05T03:46:36.491Z,359.00
2023-05-05T03:47:36.495Z,359.00
2023-05-05T03:48:36.428Z,359.00
2023-05-05T03:49:36.394Z,355.00
2023-05-05T03:50:36.419Z,357.00
2023-05-05T03:51:36.442Z,356.00
2023-05-05T03:52:36.484Z,357.00
2023-05-05T03:53:36.534Z,358.00
2023-05-05T03:54:36.568Z,359.00
2023-05-05T03:55:36.614Z,360.00
2023-05-05T03:56:36.655Z,361.00
2023-05-05T03:57:36.688Z,360.00
2023-05-05T03:58:36.738Z,364.00
2023-05-05T03:59:36.765Z,364.00
2023-05-05T04:00:36.814Z,364.00
2023-05-05T04:01:36.862Z,362.00
2023-05-05T04:02:36.958Z,362.00
2023-05-05T04:03:37.005Z,362.00
2023-05-05T04:04:36.967Z,363.00
2023-05-05T04:05:37.021Z,361.00
2023-05-05T04:06:37.060Z,362.00
2023-05-05T04:07:37.107Z,361.00
2023-05-05T04:08:37.146Z,361.00
2023-05-05T04:09:37.190Z,361.00
2023-05-05T04:10:37.228Z,362.00
2023-05-05T04:11:37.212Z,364.00
2023-05-05T04:12:37.248Z,362.00
2023-05-05T04:13:37.262Z,359.00
2023-05-05T04:14:37.151Z,357.00
2023-05-05T04:15:37.174Z,357.00
2023-05-05T04:16:37.121Z,358.00
2023-05-05T04:17:37.126Z,355.00
2023-05-05T04:18:37.069Z,356.00
2023-05-05T04:19:37.041Z,356.00
2023-05-05T04:20:37.023Z,357.00
2023-05-05T04:21:37.056Z,358.00
2023-05-05T04:22:37.105Z,359.00
2023-05-05T04:23:37.143Z,358.00
2023-05-05T04:24:37.208Z,357.00
2023-05-05T04:25:37.236Z,358.00
2023-05-05T04:26:37.295Z,360.00
2023-05-05T04:27:37.317Z,360.00
2023-05-05T04:28:37.361Z,362.00
2023-05-05T04:29:37.391Z,360.00
2023-05-05T04:30:37.420Z,362.00
2023-05-05T04:31:37.470Z,362.00
2023-05-05T04:32:37.468Z,361.00
2023-05-05T04:33:37.476Z,362.00
2023-05-05T04:34:37.499Z,361.00
2023-05-05T04:35:37.497Z,361.00
2023-05-05T04:36:37.476Z,361.00
2023-05-05T04:37:37.485Z,361.00
2023-05-05T04:38:37.552Z,360.00
2023-05-05T04:39:37.492Z,360.00
2023-05-05T04:40:37.516Z,358.00
2023-05-05T04:41:37.519Z,356.00
2023-05-05T04:42:37.560Z,353.00
2023-05-05T04:43:37.547Z,354.00
2023-05-05T04:44:37.560Z,355.00
2023-05-05T04:45:37.551Z,356.00
2023-05-05T04:46:37.612Z,356.00
2023-05-05T04:47:37.650Z,356.00
2023-05-05T04:48:37.585Z,355.00
2023-05-05T04:49:37.567Z,356.00
2023-05-05T04:50:37.527Z,356.00
2023-05-05T04:51:37.499Z,358.00
2023-05-05T04:52:37.497Z,357.00
2023-05-05T04:53:37.492Z,357.00
2023-05-05T04:54:37.431Z,355.00
2023-05-05T04:55:37.398Z,353.00
2023-05-05T04:56:37.398Z,352.00
2023-05-05T04:57:37.354Z,350.00
2023-05-05T04:58:37.369Z,352.00
2023-05-05T04:59:37.387Z,350.00
2023-05-05T05:00:37.416Z,351.00
2023-05-05T05:01:38.616Z,353.00
2023-05-05T05:02:37.650Z,354.00
2023-05-05T05:03:37.713Z,352.00
2023-05-05T05:04:37.620Z,351.00
2023-05-05T05:05:37.679Z,352.00
2023-05-05T05:06:37.695Z,352.00
2023-05-05T05:07:37.723Z,350.00
2023-05-05T05:08:37.730Z,350.00
2023-05-05T05:09:37.731Z,351.00
2023-05-05T05:10:37.700Z,351.00
2023-05-05T05:11:37.686Z,352.00
2023-05-05T05:12:37.681Z,349.00
2023-05-05T05:13:37.621Z,347.00
2023-05-05T05:14:37.579Z,345.00
2023-05-05T05:15:37.535Z,346.00
2023-05-05T05:16:37.562Z,346.00
2023-05-05T05:17:37.509Z,345.00
2023-05-05T05:18:37.472Z,343.00
2023-05-05T05:19:37.440Z,342.00
2023-05-05T05:20:37.414Z,343.00
2023-05-05T05:21:37.426Z,344.00
2023-05-05T05:22:37.414Z,344.00
2023-05-05T05:23:37.451Z,345.00
2023-05-05T05:24:37.632Z,345.00
2023-05-05T05:25:37.455Z,346.00
2023-05-05T05:26:37.381Z,347.00
2023-05-05T05:27:37.358Z,349.00
2023-05-05T05:28:37.353Z,347.00
2023-05-05T05:29:37.350Z,346.00
2023-05-05T05:30:37.290Z,346.00
2023-05-05T05:31:37.341Z,346.00
2023-05-05T05:32:37.274Z,347.00
2023-05-05T05:33:37.208Z,347.00
2023-05-05T05:34:37.203Z,351.00
2023-05-05T05:35:37.200Z,394.00
2023-05-05T05:36:37.117Z,425.00
2023-05-05T05:37:37.093Z,434.00
2023-05-05T05:38:37.117Z,434.00
2023-05-05T05:39:37.059Z,476.00
2023-05-05T05:40:37.044Z,484.00
2023-05-05T05:41:37.034Z,519.00
2023-05-05T05:42:37.064Z,552.00
2023-05-05T05:43:37.096Z,579.00
2023-05-05T05:44:37.069Z,601.00
2023-05-05T05:45:37.033Z,622.00
2023-05-05T05:46:37.052Z,635.00
2023-05-05T05:47:36.984Z,658.00
2023-05-05T05:48:37.000Z,723.00
2023-05-05T05:49:37.065Z,724.00
2023-05-05T05:50:36.890Z,747.00
2023-05-05T05:51:36.843Z,754.00
2023-05-05T05:52:36.816Z,771.00
2023-05-05T05:53:36.814Z,786.00
2023-05-05T05:54:36.749Z,813.00
2023-05-05T05:55:36.714Z,844.00
2023-05-05T05:56:36.682Z,868.00
2023-05-05T05:57:36.656Z,910.00
2023-05-05T05:58:36.647Z,924.00
2023-05-05T05:59:36.654Z,938.00
2023-05-05T06:00:36.549Z,968.00
2023-05-05T06:01:36.526Z,988.00
2023-05-05T06:02:36.579Z,1028.00
2023-05-05T06:03:36.568Z,1037.00
2023-05-05T06:04:36.633Z,1049.00
2023-05-05T06:05:36.496Z,1068.00
2023-05-05T06:06:36.512Z,1080.00
2023-05-05T06:07:36.533Z,1095.00
2023-05-05T06:08:36.562Z,1125.00
2023-05-05T06:09:36.561Z,1144.00
2023-05-05T06:10:36.580Z,1165.00
2023-05-05T06:11:36.598Z,1180.00
2023-05-05T06:12:36.646Z,1210.00
2023-05-05T06:13:36.605Z,1237.00
2023-05-05T06:14:36.599Z,1247.00
2023-05-05T06:15:36.640Z,1259.00
2023-05-05T06:16:36.677Z,1279.00
2023-05-05T06:17:36.601Z,1286.00
2023-05-05T06:18:36.608Z,1298.00
2023-05-05T06:19:36.682Z,1314.00
2023-05-05T06:20:36.623Z,1344.00
2023-05-05T06:21:36.620Z,1359.00
2023-05-05T06:22:36.608Z,1366.00
2023-05-05T06:23:36.649Z,1377.00
2023-05-05T06:24:36.630Z,1390.00
2023-05-05T06:25:36.597Z,1402.00
2023-05-05T06:26:36.664Z,1419.00
2023-05-05T06:27:36.548Z,1431.00
2023-05-05T06:28:36.573Z,1451.00
2023-05-05T06:29:36.534Z,1470.00
2023-05-05T06:30:36.494Z,1486.00
2023-05-05T06:31:37.094Z,1493.00
2023-05-05T06:32:36.495Z,1505.00
2023-05-05T06:33:36.474Z,1514.00
2023-05-05T06:34:36.379Z,1523.00
2023-05-05T06:35:36.343Z,1564.00
2023-05-05T06:36:36.410Z,1571.00
2023-05-05T06:37:36.309Z,1576.00
2023-05-05T06:38:36.276Z,1594.00
2023-05-05T06:39:36.231Z,1617.00
2023-05-05T06:40:36.229Z,1629.00
2023-05-05T06:41:36.241Z,1650.00
2023-05-05T06:42:36.195Z,1671.00
2023-05-05T06:43:36.188Z,1701.00
2023-05-05T06:44:36.189Z,1706.00
2023-05-05T06:45:36.157Z,1697.00
2023-05-05T06:46:36.172Z,1668.00
2023-05-05T06:47:36.217Z,1585.00
2023-05-05T06:48:36.115Z,1527.00
2023-05-05T06:49:36.146Z,1466.00
2023-05-05T06:50:36.066Z,1391.00
2023-05-05T06:51:36.017Z,1377.00
2023-05-05T06:52:36.030Z,1319.00
2023-05-05T06:53:36.075Z,1266.00
2023-05-05T06:54:35.989Z,1240.00
2023-05-05T06:55:35.932Z,1173.00
2023-05-05T06:56:35.902Z,1159.00
2023-05-05T06:57:35.885Z,1123.00
2023-05-05T06:58:35.868Z,1112.00
2023-05-05T06:59:35.826Z,1100.00
2023-05-05T07:00:35.901Z,1086.00
2023-05-05T07:01:35.803Z,1065.00
2023-05-05T07:02:35.744Z,1025.00
2023-05-05T07:03:35.764Z,1015.00
2023-05-05T07:04:35.702Z,994.00
2023-05-05T07:05:35.680Z,988.00
2023-05-05T07:06:35.642Z,979.00
2023-05-05T07:07:35.603Z,969.00
2023-05-05T07:08:35.584Z,953.00
2023-05-05T07:09:35.616Z,925.00
2023-05-05T07:10:35.547Z,916.00
2023-05-05T07:11:35.522Z,908.00
2023-05-05T07:12:35.505Z,894.00
2023-05-05T07:13:35.474Z,886.00
2023-05-05T07:14:35.456Z,880.00
2023-05-05T07:15:35.435Z,878.00
2023-05-05T07:16:35.502Z,877.00
2023-05-05T07:17:35.486Z,873.00
2023-05-05T07:18:35.400Z,860.00
2023-05-05T07:19:35.370Z,850.00
2023-05-05T07:20:35.332Z,842.00
2023-05-05T07:21:35.331Z,830.00
2023-05-05T07:22:35.316Z,820.00
2023-05-05T07:23:35.281Z,809.00
2023-05-05T07:24:35.384Z,808.00
2023-05-05T07:25:35.396Z,804.00
2023-05-05T07:26:35.252Z,803.00
2023-05-05T07:27:35.241Z,785.00
2023-05-05T07:28:35.259Z,777.00
2023-05-05T07:29:35.166Z,769.00
2023-05-05T07:30:35.151Z,760.00
2023-05-05T07:31:35.157Z,762.00
2023-05-05T07:32:35.248Z,760.00
2023-05-05T07:33:35.096Z,759.00
2023-05-05T07:34:35.070Z,754.00
2023-05-05T07:35:35.062Z,754.00
2023-05-05T07:36:35.039Z,750.00
2023-05-05T07:37:35.016Z,745.00
2023-05-05T07:38:34.970Z,753.00
2023-05-05T07:39:34.978Z,781.00
2023-05-05T07:40:34.941Z,829.00
2023-05-05T07:41:34.997Z,845.00
2023-05-05T07:42:34.881Z,676.00
2023-05-05T07:43:34.856Z,697.00
2023-05-05T07:44:34.816Z,684.00
2023-05-05T07:45:34.835Z,778.00
2023-05-05T07:46:34.849Z,773.00
2023-05-05T07:47:34.775Z,672.00
2023-05-05T07:48:41.900Z,580.00
2023-05-05T07:49:34.652Z,571.00
2023-05-05T07:51:53.670Z,551.00
2023-05-05T07:52:59.355Z,536.00
2023-05-05T07:53:54.419Z,538.00
2023-05-05T07:54:53.373Z,524.00
2023-05-05T07:55:53.332Z,522.00
2023-05-05T07:56:53.382Z,510.00
2023-05-05T07:57:53.266Z,513.00
2023-05-05T07:58:53.311Z,506.00
2023-05-05T07:59:53.349Z,512.00
2023-05-05T08:00:53.230Z,507.00
2023-05-05T08:01:54.947Z,493.00
2023-05-05T08:02:53.257Z,460.00
2023-05-05T08:03:53.174Z,466.00
2023-05-05T08:04:53.092Z,449.00
2023-05-05T08:05:53.070Z,382.00
2023-05-05T08:06:53.049Z,442.00
2023-05-05T08:07:53.018Z,451.00
2023-05-05T08:08:52.991Z,482.00
2023-05-05T08:09:52.950Z,469.00
2023-05-05T08:10:53.010Z,467.00
2023-05-05T08:11:52.977Z,463.00
2023-05-05T08:12:53.200Z,456.00
2023-05-05T08:13:53.021Z,464.00
2023-05-05T08:14:53.056Z,418.00
2023-05-05T08:15:53.116Z,447.00
2023-05-05T08:16:53.125Z,434.00
2023-05-05T08:17:53.118Z,438.00
2023-05-05T08:18:53.172Z,506.00
2023-05-05T08:19:53.137Z,537.00
2023-05-05T08:20:53.059Z,537.00
2023-05-05T08:21:52.999Z,542.00
2023-05-05T08:22:52.992Z,602.00
2023-05-05T08:23:52.972Z,648.00
2023-05-05T08:24:52.964Z,648.00
2023-05-05T08:25:52.910Z,584.00
2023-05-05T08:26:52.888Z,585.00
2023-05-05T08:27:52.866Z,600.00
2023-05-05T08:28:52.908Z,635.00
2023-05-05T08:29:52.815Z,653.00
2023-05-05T08:30:52.871Z,708.00
2023-05-05T08:31:52.798Z,528.00
2023-05-05T08:32:52.906Z,593.00
2023-05-05T08:33:52.747Z,658.00
2023-05-05T08:34:52.677Z,549.00
2023-05-05T08:35:52.629Z,554.00
2023-05-05T08:36:52.603Z,560.00
2023-05-05T08:37:52.600Z,473.00
2023-05-05T08:38:52.548Z,590.00
2023-05-05T08:39:52.647Z,594.00
2023-05-05T08:40:52.513Z,585.00
2023-05-05T08:41:52.480Z,582.00
2023-05-05T08:42:52.444Z,577.00
2023-05-05T08:43:52.417Z,580.00
2023-05-05T08:44:52.555Z,578.00
2023-05-05T08:45:52.433Z,507.00
2023-05-05T08:46:52.449Z,558.00
2023-05-05T08:47:52.375Z,583.00
2023-05-05T08:48:52.285Z,582.00
2023-05-05T08:49:52.251Z,678.00
2023-05-05T08:50:52.321Z,717.00
2023-05-05T08:51:52.206Z,753.00
2023-05-05T08:52:52.196Z,788.00
2023-05-05T08:53:52.212Z,776.00
2023-05-05T08:54:52.088Z,606.00
2023-05-05T08:55:52.060Z,682.00
2023-05-05T08:56:52.090Z,695.00
2023-05-05T08:57:51.990Z,672.00
2023-05-05T08:58:51.990Z,540.00
2023-05-05T08:59:51.962Z,578.00
2023-05-05T09:00:52.187Z,650.00
2023-05-05T09:01:51.899Z,662.00
2023-05-05T09:02:52.056Z,657.00
2023-05-05T09:03:52.702Z,657.00
2023-05-05T09:04:51.840Z,659.00
2023-05-05T09:05:51.827Z,661.00
2023-05-05T09:06:51.762Z,661.00
2023-05-05T09:07:51.728Z,680.00
2023-05-05T09:08:51.719Z,683.00
2023-05-05T09:09:51.671Z,676.00
2023-05-05T09:10:51.641Z,671.00
2023-05-05T09:11:51.682Z,669.00
2023-05-05T09:12:51.722Z,670.00
2023-05-05T09:13:51.622Z,665.00
2023-05-05T09:14:51.500Z,658.00
2023-05-05T09:15:51.471Z,661.00
2023-05-05T09:16:51.552Z,660.00
2023-05-05T09:17:51.489Z,663.00
2023-05-05T09:18:51.377Z,663.00
2023-05-05T09:19:51.341Z,675.00
2023-05-05T09:20:51.312Z,684.00
2023-05-05T09:21:51.281Z,690.00
2023-05-05T09:22:51.248Z,693.00
2023-05-05T09:23:51.211Z,691.00
2023-05-05T09:24:51.184Z,690.00
2023-05-05T09:25:51.174Z,684.00
2023-05-05T09:26:51.143Z,685.00
2023-05-05T09:27:51.126Z,685.00
2023-05-05T09:28:51.084Z,683.00
2023-05-05T09:29:51.060Z,680.00
2023-05-05T09:30:51.093Z,673.00
2023-05-05T09:31:51.001Z,656.00
2023-05-05T09:32:51.219Z,652.00
2023-05-05T09:33:50.930Z,651.00
2023-05-05T09:34:50.955Z,650.00
2023-05-05T09:35:50.890Z,647.00
2023-05-05T09:36:50.861Z,646.00
2023-05-05T09:37:50.907Z,654.00
2023-05-05T09:38:50.910Z,661.00
2023-05-05T09:39:50.814Z,662.00
2023-05-05T09:40:50.737Z,657.00
2023-05-05T09:41:50.706Z,667.00
2023-05-05T09:42:50.705Z,733.00
2023-05-05T09:43:50.735Z,729.00
2023-05-05T09:44:50.617Z,735.00
2023-05-05T09:45:50.591Z,743.00
2023-05-05T09:46:50.952Z,755.00
2023-05-05T09:47:50.592Z,792.00
2023-05-05T09:48:50.648Z,796.00
2023-05-05T09:49:50.473Z,805.00
2023-05-05T09:50:50.482Z,810.00
2023-05-05T09:51:50.506Z,819.00
2023-05-05T09:52:50.526Z,810.00
2023-05-05T09:53:50.602Z,801.00
2023-05-05T09:54:50.627Z,794.00
2023-05-05T09:55:50.729Z,793.00
2023-05-05T09:56:50.794Z,793.00
2023-05-05T09:57:50.736Z,796.00
2023-05-05T09:58:50.727Z,797.00
2023-05-05T09:59:50.689Z,790.00
2023-05-05T10:00:50.668Z,790.00
2023-05-05T10:01:50.763Z,795.00
2023-05-05T10:02:50.649Z,795.00
2023-05-05T10:03:50.567Z,790.00
2023-05-05T10:04:50.654Z,789.00
2023-05-05T10:05:50.576Z,792.00
2023-05-05T10:06:50.483Z,796.00
2023-05-05T10:07:50.453Z,796.00
2023-05-05T10:08:50.465Z,807.00
2023-05-05T10:09:50.501Z,838.00
2023-05-05T10:10:50.553Z,863.00
2023-05-05T10:11:50.552Z,895.00
2023-05-05T10:12:50.574Z,928.00
2023-05-05T10:13:50.591Z,933.00
2023-05-05T10:14:50.677Z,926.00
2023-05-05T10:15:53.255Z,899.00
2023-05-05T10:16:50.524Z,912.00
2023-05-05T10:18:02.286Z,929.00
2023-05-05T10:18:51.485Z,952.00
2023-05-05T10:19:50.533Z,979.00
2023-05-05T10:20:50.491Z,992.00
2023-05-05T10:21:50.365Z,1003.00
2023-05-05T10:22:50.292Z,1010.00
2023-05-05T10:23:50.271Z,1035.00
2023-05-05T10:24:50.234Z,1050.00
2023-05-05T10:25:50.191Z,1061.00
2023-05-05T10:26:50.268Z,1069.00
2023-05-05T10:27:50.167Z,1078.00
2023-05-05T10:28:50.101Z,1085.00
2023-05-05T10:29:50.112Z,1091.00
2023-05-05T10:30:50.141Z,1100.00
2023-05-05T10:31:50.115Z,1110.00
2023-05-05T10:32:56.066Z,1124.00
2023-05-05T10:33:51.097Z,1141.00
2023-05-05T10:34:50.003Z,1231.00
2023-05-05T10:35:49.976Z,1262.00
2023-05-05T10:36:50.058Z,1282.00
2023-05-05T10:37:49.894Z,1255.00
2023-05-05T10:38:49.891Z,788.00
2023-05-05T10:39:49.828Z,832.00
2023-05-05T10:40:49.808Z,1082.00
2023-05-05T10:41:49.763Z,1047.00
2023-05-05T10:42:49.726Z,596.00
2023-05-05T10:43:49.699Z,619.00
2023-05-05T10:44:49.684Z,492.00
2023-05-05T10:45:49.684Z,818.00
2023-05-05T10:46:49.618Z,589.00
2023-05-05T10:47:49.701Z,715.00
2023-05-05T10:48:49.673Z,733.00
2023-05-05T10:49:49.679Z,724.00
2023-05-05T10:50:49.683Z,711.00
2023-05-05T10:51:49.678Z,753.00
2023-05-05T10:52:49.696Z,790.00
2023-05-05T10:53:49.695Z,842.00
2023-05-05T10:54:49.618Z,851.00
2023-05-05T10:55:49.603Z,868.00
2023-05-05T10:56:49.555Z,903.00
2023-05-05T10:57:49.520Z,913.00
2023-05-05T10:58:59.851Z,958.00
2023-05-05T10:59:50.447Z,971.00
2023-05-05T11:00:49.447Z,1030.00
2023-05-05T11:01:49.455Z,1034.00
2023-05-05T11:02:49.360Z,1042.00
2023-05-05T11:03:49.330Z,1050.00
2023-05-05T11:04:49.228Z,1053.00
2023-05-05T11:05:49.191Z,1061.00
2023-05-05T11:06:49.165Z,1063.00
2023-05-05T11:07:49.153Z,1068.00
2023-05-05T11:08:49.124Z,1079.00
2023-05-05T11:09:49.022Z,1098.00
2023-05-05T11:10:49.025Z,1106.00
2023-05-05T11:11:48.954Z,1114.00
2023-05-05T11:12:48.943Z,1123.00
2023-05-05T11:13:48.887Z,1128.00
2023-05-05T11:14:48.860Z,1141.00
2023-05-05T11:15:48.761Z,1151.00
2023-05-05T11:16:48.770Z,1153.00
2023-05-05T11:17:48.840Z,1169.00
2023-05-05T11:18:48.645Z,1193.00
2023-05-05T11:19:48.667Z,1268.00
2023-05-05T11:20:48.638Z,1296.00
2023-05-05T11:21:48.523Z,1311.00
2023-05-05T11:22:48.513Z,1336.00
2023-05-05T11:23:48.479Z,1335.00
2023-05-05T11:24:48.468Z,1328.00
2023-05-05T11:25:48.385Z,1329.00
2023-05-05T11:26:48.318Z,1330.00
2023-05-05T11:27:48.295Z,1348.00
2023-05-05T11:28:48.276Z,1364.00
2023-05-05T11:29:50.253Z,1408.00
2023-05-05T11:30:48.201Z,1410.00
2023-05-05T11:31:48.132Z,1397.00
2023-05-05T11:32:48.154Z,1384.00
2023-05-05T11:33:48.085Z,1347.00
2023-05-05T11:34:48.002Z,1331.00
2023-05-05T11:35:48.035Z,1263.00
2023-05-05T11:36:47.937Z,1247.00
2023-05-05T11:37:47.909Z,1244.00
2023-05-05T11:38:47.870Z,1232.00
2023-05-05T11:39:47.830Z,1210.00
2023-05-05T11:40:47.769Z,1186.00
2023-05-05T11:41:47.749Z,1114.00
2023-05-05T11:42:47.699Z,1095.00
2023-05-05T11:43:47.666Z,1080.00
2023-05-05T11:44:47.631Z,1039.00
2023-05-05T11:45:47.595Z,1002.00
2023-05-05T11:46:47.563Z,992.00
2023-05-05T11:47:47.528Z,983.00
2023-05-05T11:48:47.462Z,951.00
2023-05-05T11:49:47.435Z,942.00
2023-05-05T11:50:47.397Z,935.00
2023-05-05T11:51:47.367Z,908.00
2023-05-05T11:52:47.392Z,892.00
2023-05-05T11:53:47.297Z,884.00
2023-05-05T11:54:47.305Z,879.00
2023-05-05T11:55:47.258Z,876.00
2023-05-05T11:56:47.248Z,871.00
2023-05-05T11:57:47.170Z,862.00
2023-05-05T11:58:47.134Z,860.00
2023-05-05T11:59:48.378Z,854.00
2023-05-05T12:00:47.047Z,849.00
2023-05-05T12:01:47.017Z,841.00
2023-05-05T12:02:47.028Z,833.00
2023-05-05T12:03:47.090Z,827.00
2023-05-05T12:04:47.039Z,823.00
2023-05-05T12:05:46.884Z,804.00
2023-05-05T12:06:46.845Z,790.00
2023-05-05T12:07:46.816Z,782.00
2023-05-05T12:08:46.777Z,781.00
2023-05-05T12:09:46.756Z,778.00
2023-05-05T12:10:46.703Z,772.00
2023-05-05T12:11:46.683Z,770.00
2023-05-05T12:12:46.772Z,764.00
2023-05-05T12:13:46.638Z,761.00
2023-05-05T12:14:46.562Z,756.00
2023-05-05T12:15:46.588Z,751.00
2023-05-05T12:16:46.554Z,750.00
2023-05-05T12:17:46.546Z,749.00
2023-05-05T12:18:46.420Z,742.00
2023-05-05T12:19:46.421Z,736.00
2023-05-05T12:20:46.400Z,735.00
2023-05-05T12:21:46.448Z,731.00
2023-05-05T12:22:46.393Z,723.00
2023-05-05T12:23:46.409Z,718.00
2023-05-05T12:24:46.401Z,712.00
2023-05-05T12:25:46.396Z,704.00